KPF626 EDXW-EKAH
Flight info
| Callsign | KPF626 |
|---|---|
| Flight time | 0h 29m |
| Altitude | 27000 |
| Route | OLDIP1B OLDIP DCT ATTUS DCT NISEM DCT TESPI DCT ADSEN |
| Aircraft | CL60/M-SBDE1E2E3FGHIJ1J4J5J7M3RWXYZ/LB1V1D1 |
Departure
| Time | 2026-05-09 15:06 |
|---|---|
| Airport | Westerland Sylt Airport (EDXW) |
Arrival
| Time | 2026-05-09 15:35 |
|---|---|
| Airport | Aarhus Airport (EKAH) |
| Time | Latitude | Longitude | Altitude | Speed | Heading |
|---|---|---|---|---|---|
| 2026-05-09 14:19 | 54.91399 | 8.32450 | 31 ft | 0 kts | 262° |
| 2026-05-09 14:57 | 54.91393 | 8.32441 | 31 ft | 3 kts | 172° |
| 2026-05-09 14:57 | 54.91362 | 8.32493 | 31 ft | 8 kts | 149° |
| 2026-05-09 14:58 | 54.91295 | 8.32529 | 31 ft | 11 kts | 158° |
| 2026-05-09 14:58 | 54.91226 | 8.32585 | 31 ft | 7 kts | 153° |
| 2026-05-09 14:58 | 54.91169 | 8.32619 | 32 ft | 10 kts | 145° |
| 2026-05-09 14:58 | 54.91103 | 8.32700 | 32 ft | 9 kts | 140° |
| 2026-05-09 14:59 | 54.91077 | 8.32780 | 32 ft | 8 kts | 109° |
| 2026-05-09 14:59 | 54.91055 | 8.32891 | 32 ft | 10 kts | 109° |
| 2026-05-09 14:59 | 54.91005 | 8.33009 | 32 ft | 14 kts | 135° |
| 2026-05-09 14:59 | 54.90933 | 8.33117 | 33 ft | 17 kts | 150° |
| 2026-05-09 15:00 | 54.90815 | 8.33208 | 33 ft | 19 kts | 167° |
| 2026-05-09 15:00 | 54.90690 | 8.33229 | 33 ft | 16 kts | 176° |
| 2026-05-09 15:00 | 54.90599 | 8.33244 | 33 ft | 10 kts | 174° |
| 2026-05-09 15:00 | 54.90527 | 8.33257 | 32 ft | 13 kts | 169° |
| 2026-05-09 15:01 | 54.90302 | 8.33530 | 32 ft | 23 kts | 118° |
| 2026-05-09 15:01 | 54.90254 | 8.33813 | 33 ft | 25 kts | 101° |
| 2026-05-09 15:01 | 54.90236 | 8.34050 | 34 ft | 15 kts | 96° |
| 2026-05-09 15:02 | 54.90244 | 8.34240 | 35 ft | 16 kts | 82° |
| 2026-05-09 15:02 | 54.90262 | 8.34417 | 36 ft | 15 kts | 79° |
| 2026-05-09 15:02 | 54.90283 | 8.34625 | 37 ft | 18 kts | 79° |
| 2026-05-09 15:02 | 54.90305 | 8.34829 | 38 ft | 15 kts | 79° |
| 2026-05-09 15:03 | 54.90323 | 8.34992 | 38 ft | 12 kts | 78° |
| 2026-05-09 15:03 | 54.90331 | 8.35056 | 38 ft | 6 kts | 72° |
| 2026-05-09 15:03 | 54.90363 | 8.35128 | 38 ft | 8 kts | 52° |
| 2026-05-09 15:03 | 54.90396 | 8.35180 | 39 ft | 5 kts | 6° |
| 2026-05-09 15:04 | 54.90417 | 8.35172 | 39 ft | 0 kts | 325° |
| 2026-05-09 15:04 | 54.90579 | 8.34970 | 39 ft | 74 kts | 325° |
| 2026-05-09 15:06 | 54.97719 | 8.25338 | 5050 ft | 228 kts | 295° |
| 2026-05-09 15:06 | 54.98070 | 8.22683 | 5989 ft | 228 kts | 265° |
| 2026-05-09 15:06 | 54.97630 | 8.20120 | 6940 ft | 227 kts | 237° |
| 2026-05-09 15:06 | 54.96746 | 8.17917 | 7938 ft | 226 kts | 232° |
| 2026-05-09 15:07 | 54.95841 | 8.15749 | 8924 ft | 226 kts | 231° |
| 2026-05-09 15:07 | 54.94698 | 8.13930 | 9915 ft | 227 kts | 208° |
| 2026-05-09 15:07 | 54.93205 | 8.13156 | 10925 ft | 233 kts | 183° |
| 2026-05-09 15:07 | 54.91616 | 8.13752 | 11983 ft | 252 kts | 153° |
| 2026-05-09 15:08 | 54.90184 | 8.15606 | 13183 ft | 266 kts | 143° |
| 2026-05-09 15:08 | 54.87310 | 8.19729 | 15677 ft | 278 kts | 143° |
| 2026-05-09 15:08 | 54.85832 | 8.21835 | 16951 ft | 280 kts | 144° |
| 2026-05-09 15:09 | 54.84294 | 8.24019 | 17797 ft | 297 kts | 144° |
| 2026-05-09 15:10 | 54.70652 | 8.39559 | 23833 ft | 362 kts | 149° |
| 2026-05-09 15:11 | 54.68754 | 8.42451 | 24728 ft | 372 kts | 131° |
| 2026-05-09 15:11 | 54.67408 | 8.46326 | 25586 ft | 381 kts | 115° |
| 2026-05-09 15:11 | 54.66419 | 8.50549 | 26350 ft | 387 kts | 112° |
| 2026-05-09 15:11 | 54.65772 | 8.55119 | 26959 ft | 399 kts | 96° |
| 2026-05-09 15:12 | 54.65825 | 8.59903 | 27143 ft | 406 kts | 80° |
| 2026-05-09 15:12 | 54.66655 | 8.64542 | 27150 ft | 399 kts | 62° |
| 2026-05-09 15:12 | 54.68191 | 8.68490 | 27148 ft | 402 kts | 46° |
| 2026-05-09 15:12 | 54.70427 | 8.71655 | 27157 ft | 420 kts | 28° |
| 2026-05-09 15:13 | 54.73162 | 8.73538 | 27156 ft | 434 kts | 10° |
| 2026-05-09 15:13 | 54.76197 | 8.74447 | 27126 ft | 449 kts | 6° |
| 2026-05-09 15:13 | 54.79347 | 8.75314 | 27139 ft | 455 kts | 6° |
| 2026-05-09 15:13 | 54.82458 | 8.76184 | 27150 ft | 453 kts | 6° |
| 2026-05-09 15:14 | 54.85568 | 8.77057 | 27153 ft | 450 kts | 6° |
| 2026-05-09 15:14 | 54.88631 | 8.78267 | 27163 ft | 452 kts | 16° |
| 2026-05-09 15:14 | 54.91479 | 8.80677 | 27165 ft | 457 kts | 31° |
| 2026-05-09 15:14 | 54.93993 | 8.84094 | 27146 ft | 460 kts | 38° |
| 2026-05-09 15:15 | 54.96448 | 8.87701 | 27151 ft | 460 kts | 38° |
| 2026-05-09 15:15 | 54.98888 | 8.91274 | 27156 ft | 460 kts | 38° |
| 2026-05-09 15:15 | 55.01353 | 8.94890 | 27154 ft | 460 kts | 38° |
| 2026-05-09 15:15 | 55.03828 | 8.98527 | 27157 ft | 461 kts | 38° |
| 2026-05-09 15:16 | 55.06278 | 9.02130 | 27160 ft | 460 kts | 38° |
| 2026-05-09 15:16 | 55.08746 | 9.05769 | 27163 ft | 460 kts | 38° |
| 2026-05-09 15:16 | 55.11182 | 9.09364 | 27162 ft | 460 kts | 38° |
| 2026-05-09 15:16 | 55.13625 | 9.12976 | 27164 ft | 460 kts | 38° |
| 2026-05-09 15:17 | 55.16100 | 9.16641 | 27167 ft | 460 kts | 38° |
| 2026-05-09 15:17 | 55.18545 | 9.20267 | 27170 ft | 459 kts | 38° |
| 2026-05-09 15:17 | 55.20967 | 9.23866 | 27169 ft | 459 kts | 38° |
| 2026-05-09 15:17 | 55.23430 | 9.27532 | 27171 ft | 459 kts | 38° |
| 2026-05-09 15:18 | 55.25835 | 9.31116 | 27172 ft | 459 kts | 38° |
| 2026-05-09 15:18 | 55.28302 | 9.34800 | 27170 ft | 459 kts | 38° |
| 2026-05-09 15:18 | 55.30702 | 9.38389 | 27174 ft | 460 kts | 38° |
| 2026-05-09 15:18 | 55.33175 | 9.42092 | 27012 ft | 463 kts | 38° |
| 2026-05-09 15:19 | 55.35618 | 9.45758 | 26507 ft | 462 kts | 38° |
| 2026-05-09 15:19 | 55.38039 | 9.49397 | 25946 ft | 455 kts | 38° |
| 2026-05-09 15:19 | 55.40417 | 9.52980 | 25368 ft | 449 kts | 38° |
| 2026-05-09 15:19 | 55.42780 | 9.56545 | 24782 ft | 444 kts | 38° |
| 2026-05-09 15:20 | 55.45108 | 9.60062 | 24203 ft | 440 kts | 38° |
| 2026-05-09 15:20 | 55.49684 | 9.66990 | 23055 ft | 433 kts | 39° |
| 2026-05-09 15:20 | 55.51954 | 9.70435 | 22486 ft | 429 kts | 39° |
| 2026-05-09 15:21 | 55.54201 | 9.73851 | 21911 ft | 426 kts | 39° |
| 2026-05-09 15:21 | 55.56455 | 9.77281 | 21342 ft | 422 kts | 39° |
| 2026-05-09 15:21 | 55.58669 | 9.80657 | 20784 ft | 419 kts | 39° |
| 2026-05-09 15:21 | 55.60860 | 9.84003 | 20233 ft | 416 kts | 39° |
| 2026-05-09 15:22 | 55.63030 | 9.87322 | 19683 ft | 413 kts | 39° |
| 2026-05-09 15:22 | 55.65179 | 9.90649 | 19143 ft | 410 kts | 42° |
| 2026-05-09 15:22 | 55.67009 | 9.94510 | 18581 ft | 409 kts | 54° |
| 2026-05-09 15:22 | 55.68603 | 9.98584 | 18035 ft | 404 kts | 54° |
| 2026-05-09 15:23 | 55.70192 | 10.02633 | 17513 ft | 401 kts | 54° |
| 2026-05-09 15:23 | 55.71782 | 10.06686 | 16974 ft | 398 kts | 54° |
| 2026-05-09 15:23 | 55.73349 | 10.10689 | 16462 ft | 395 kts | 54° |
| 2026-05-09 15:23 | 55.74903 | 10.14660 | 15936 ft | 391 kts | 54° |
| 2026-05-09 15:24 | 55.76450 | 10.18622 | 15421 ft | 388 kts | 54° |
| 2026-05-09 15:24 | 55.77961 | 10.22496 | 14913 ft | 385 kts | 54° |
| 2026-05-09 15:24 | 55.79475 | 10.26382 | 14405 ft | 381 kts | 54° |
| 2026-05-09 15:24 | 55.80970 | 10.30224 | 13905 ft | 373 kts | 54° |
| 2026-05-09 15:25 | 55.82433 | 10.33993 | 13415 ft | 363 kts | 55° |
| 2026-05-09 15:25 | 55.83844 | 10.37628 | 12941 ft | 353 kts | 55° |
| 2026-05-09 15:25 | 55.85202 | 10.41133 | 12486 ft | 345 kts | 55° |
| 2026-05-09 15:26 | 55.87864 | 10.48020 | 11591 ft | 329 kts | 56° |
| 2026-05-09 15:26 | 55.89134 | 10.51307 | 11162 ft | 323 kts | 56° |
| 2026-05-09 15:26 | 55.90612 | 10.54266 | 10736 ft | 317 kts | 40° |
| 2026-05-09 15:26 | 55.92309 | 10.56679 | 10304 ft | 313 kts | 39° |
| 2026-05-09 15:27 | 55.93998 | 10.59075 | 9894 ft | 307 kts | 39° |
| 2026-05-09 15:27 | 55.95674 | 10.61458 | 9280 ft | 310 kts | 39° |
| 2026-05-09 15:27 | 55.97331 | 10.63817 | 8895 ft | 302 kts | 39° |
| 2026-05-09 15:27 | 55.98952 | 10.66130 | 8484 ft | 298 kts | 40° |
| 2026-05-09 15:28 | 56.00579 | 10.68452 | 8093 ft | 292 kts | 40° |
| 2026-05-09 15:28 | 56.02147 | 10.70694 | 7707 ft | 286 kts | 40° |
| 2026-05-09 15:28 | 56.03678 | 10.72885 | 7334 ft | 281 kts | 40° |
| 2026-05-09 15:28 | 56.05193 | 10.75055 | 6962 ft | 276 kts | 40° |
| 2026-05-09 15:29 | 56.06671 | 10.77176 | 6600 ft | 275 kts | 40° |
| 2026-05-09 15:29 | 56.08154 | 10.79306 | 6237 ft | 274 kts | 40° |
| 2026-05-09 15:29 | 56.09646 | 10.81452 | 5871 ft | 273 kts | 40° |
| 2026-05-09 15:29 | 56.11117 | 10.83569 | 5509 ft | 271 kts | 40° |
| 2026-05-09 15:30 | 56.12593 | 10.85697 | 5160 ft | 270 kts | 40° |
| 2026-05-09 15:30 | 56.14061 | 10.87821 | 4787 ft | 269 kts | 41° |
| 2026-05-09 15:30 | 56.15454 | 10.89980 | 4435 ft | 266 kts | 43° |
| 2026-05-09 15:30 | 56.16835 | 10.92169 | 4080 ft | 264 kts | 43° |
| 2026-05-09 15:31 | 56.18305 | 10.94098 | 3727 ft | 264 kts | 28° |
| 2026-05-09 15:31 | 56.20070 | 10.94923 | 3355 ft | 265 kts | 3° |
| 2026-05-09 15:31 | 56.21888 | 10.94577 | 2981 ft | 265 kts | 351° |
| 2026-05-09 15:31 | 56.23699 | 10.94025 | 2630 ft | 262 kts | 352° |
| 2026-05-09 15:32 | 56.25480 | 10.93358 | 2337 ft | 261 kts | 339° |
| 2026-05-09 15:32 | 56.26926 | 10.91466 | 2041 ft | 259 kts | 307° |
| 2026-05-09 15:32 | 56.27631 | 10.88559 | 1965 ft | 258 kts | 282° |
| 2026-05-09 15:32 | 56.27953 | 10.85436 | 1977 ft | 243 kts | 279° |
| 2026-05-09 15:33 | 56.28230 | 10.82552 | 2008 ft | 219 kts | 279° |
| 2026-05-09 15:33 | 56.28490 | 10.79978 | 1851 ft | 201 kts | 280° |
| 2026-05-09 15:33 | 56.28731 | 10.77622 | 1569 ft | 182 kts | 280° |
| 2026-05-09 15:33 | 56.28944 | 10.75557 | 1429 ft | 149 kts | 280° |
| 2026-05-09 15:34 | 56.29128 | 10.73764 | 1197 ft | 142 kts | 279° |
| 2026-05-09 15:34 | 56.29305 | 10.72042 | 1005 ft | 137 kts | 279° |
| 2026-05-09 15:34 | 56.29476 | 10.70374 | 812 ft | 135 kts | 280° |
| 2026-05-09 15:34 | 56.29648 | 10.68693 | 630 ft | 134 kts | 279° |
| 2026-05-09 15:35 | 56.29814 | 10.67066 | 457 ft | 132 kts | 279° |
| 2026-05-09 15:35 | 56.29974 | 10.65434 | 288 ft | 131 kts | 280° |
| 2026-05-09 15:35 | 56.30137 | 10.63867 | 87 ft | 121 kts | 279° |
| 2026-05-09 15:35 | 56.30259 | 10.62682 | 78 ft | 43 kts | 281° |
| 2026-05-09 15:36 | 56.30284 | 10.62502 | 78 ft | 6 kts | 240° |
| 2026-05-09 15:36 | 56.30261 | 10.62561 | 78 ft | 8 kts | 97° |
| 2026-05-09 15:36 | 56.30255 | 10.62669 | 78 ft | 9 kts | 96° |
| 2026-05-09 15:36 | 56.30245 | 10.62795 | 78 ft | 11 kts | 99° |
| 2026-05-09 15:37 | 56.30275 | 10.62906 | 78 ft | 12 kts | 16° |
| 2026-05-09 15:37 | 56.30366 | 10.62933 | 77 ft | 10 kts | 11° |
| 2026-05-09 15:37 | 56.30423 | 10.62951 | 77 ft | 8 kts | 9° |
| 2026-05-09 15:37 | 56.30486 | 10.62972 | 77 ft | 10 kts | 11° |
| 2026-05-09 15:38 | 56.30545 | 10.62994 | 77 ft | 9 kts | 12° |
| 2026-05-09 15:38 | 56.30588 | 10.63008 | 77 ft | 3 kts | 6° |
| 2026-05-09 15:38 | 56.30625 | 10.62956 | 77 ft | 12 kts | 285° |
| 2026-05-09 15:38 | 56.30643 | 10.62785 | 77 ft | 13 kts | 279° |
| 2026-05-09 15:39 | 56.30660 | 10.62614 | 77 ft | 14 kts | 279° |
| 2026-05-09 15:39 | 56.30667 | 10.62509 | 78 ft | 5 kts | 277° |
| 2026-05-09 15:39 | 56.30671 | 10.62458 | 78 ft | 4 kts | 276° |
| 2026-05-09 15:39 | 56.30679 | 10.62396 | 78 ft | 1 kts | 303° |
| 2026-05-09 15:40 | 56.30695 | 10.62349 | 78 ft | 6 kts | 303° |
| 2026-05-09 15:40 | 56.30740 | 10.62346 | 78 ft | 5 kts | 20° |
| 2026-05-09 15:40 | 56.30756 | 10.62315 | 78 ft | 1 kts | 244° |
| 2026-05-09 15:40 | 56.30747 | 10.62291 | 78 ft | 0 kts | 244° |